Impacts METAR Board
IDs:

KSAN - San Diego Intl Arpt, CA, US

Updated at: 0100 UTC 25 May 2018
Potential Impact None Slight Moderate High
Time 24/13Z 24/14Z 24/15Z 24/16Z 24/17Z 24/18Z 24/19Z 24/20Z 24/21Z 24/22Z 24/23Z 25/00Z 25/01Z
Temp60 60 61 62 62 62 63 65 66 66 65 64 64
Dewpt55 54 53 53 53 53 53 52 52 53 53 52 53
Altim30.06 30.08 30.10 30.11 30.11 30.11 30.12 30.10 30.11 30.11 30.11 30.09 30.08
VIS7 10 10 10 10 10 10 10 10 10 10 10 10
CIG21 21 18 17 17 18 20 23 25 32 23 36 36
CoverOVCBKNOVCOVCOVCOVCOVCOVCOVCOVCOVCOVCOVC
FltCatMVFRMVFRMVFRMVFRMVFRMVFRMVFRMVFRMVFRVFRMVFRVFRVFR
WX-RA------------------------
WDir2803200250300290330320280290290300310
WSpd5 4 0 5 7 6 9 6 11 10 11 9 8
WGst-- -- -- -- -- -- -- -- -- 15 -- -- --
Raw hourly METARs
KSAN 241251Z 28005KT 7SM -RA FEW009 SCT014 OVC021 16/13 A3006 RMK AO2 DZB1159E39RAB39 SLP179 P0000 T01560128
KSAN 241351Z 32004KT 10SM FEW009 SCT015 BKN021 16/12 A3008 RMK AO2 RAE02 SLP186 VCSH P0000 T01560122
KSAN 241451Z 00000KT 10SM FEW015 BKN018 OVC024 16/12 A3010 RMK AO2 SLP190 60000 T01610117 53012
KSAN 241551Z 25005KT 10SM FEW015 BKN017 OVC024 17/12 A3011 RMK AO2 SLP196 T01670117
KSAN 241651Z 30007KT 10SM FEW015 BKN017 OVC024 17/12 A3011 RMK AO2 SLP196 T01670117
KSAN 241751Z 29006KT 10SM FEW015 BKN018 OVC024 17/12 A3011 RMK AO2 SLP196 60000 T01670117 10172 20156 51006
KSAN 241851Z 33009KT 10SM BKN020 OVC026 17/12 A3012 RMK AO2 SLP197 T01720117
KSAN 241951Z 32006KT 10SM BKN023 OVC030 18/11 A3010 RMK AO2 SLP193 T01830111
KSAN 242051Z 28011KT 10SM BKN025 OVC030 19/11 A3011 RMK AO2 SLP194 T01890111 57002
KSAN 242151Z 29010G15KT 10SM SCT023 OVC032 19/12 A3011 RMK AO2 SLP195 T01890117
KSAN 242251Z 29011KT 10SM BKN023 OVC033 18/12 A3011 RMK AO2 SLP194 T01830117
KSAN 242351Z 30009KT 10SM FEW023 OVC036 18/11 A3009 RMK AO2 SLP189 T01780111 10194 20167 58005
KSAN 250051Z 31008KT 10SM FEW023 OVC036 18/12 A3008 RMK AO2 SLP187 T01780117



Page loaded:  01:26 UTC  |   06:26 PM Pacific  |   07:26 PM Mountain  |   08:26 PM Central  |   09:26 PM Eastern

 

ADVISORIES

FORECASTS

FORECASTS

OBSERVATIONS

USER TOOLS

ABOUT US